Surface Preassure
0:00 UTC
12:00 UTC (Click for larger versions)
Andrewsfield Outlook

Current time:


  01:29:02pm (GMT)      01:29:02pm (UTC)


Headline: Rain to start. Dry with sunshine later.

Today: There will be rain to start, particularly across northern parts. Through the morning rain will clear leaving a dry afternoon with plenty of sunshine on offer. Feeling on the cold side especially in the stronger winds. Maximum Temperature 5C.

Tonight: It will become increasingly cloudy through the evening with rain, often heavy, soon arriving. The rain will continue overnight with the risk of snow over the higher ground. Minimum Temperature 1C.

Monday: A wet start with rain, heavy at times. The rain will clear through the morning leaving a drier afternoon with sunny spells, although the odd shower is still possible. Maximum Temperature 7C.

Outlook for Tuesday to Thursday: Tuesday and Wednesday will be mostly dry with sunny spells after a frosty start and the risk of freezing fog. Thursday will be cloudy with rain and turning less cold.

Nearby METAR/TAF

Stansted (EGSS)


Current conditions: MVFR

METAR: EGSS 151320Z AUTO 24012KT 9999 BKN030 08/04 Q0996

TAF: TAF EGSS 151056Z 1512/1618 22012KT 9999 SCT030 TEMPO 1512/1602 21015G25KT PROB30 TEMPO 1512/1514 7000 SHRA PROB40 TEMPO 1520/1524 6000 SHRA BKN011 BECMG 1612/1615 15004KT

Southend (EGMC)


Current conditions: VFR

METAR: EGMC 151320Z 22015KT 9999 FEW024 09/04 Q0997

TAF: TAF EGMC 151054Z 1512/1521 22015KT 9999 FEW025 TEMPO 1512/1515 23020G30KT

RAF Wattisham (EGUW)


Current conditions: VFR

METAR: EGUW 151250Z AUTO 24017KT 9999 NCD 08/04 Q0995

TAF: